createdAt,value
2019-01-11T00:00:53.437Z,983.54
2019-01-11T00:01:53.669Z,983.54
2019-01-11T00:03:57.839Z,983.57
2019-01-11T00:04:58.070Z,983.59
2019-01-11T00:07:02.718Z,983.59
2019-01-11T00:08:02.949Z,983.54
2019-01-11T00:10:07.119Z,983.55
2019-01-11T00:11:07.347Z,983.57
2019-01-11T00:13:11.492Z,983.52
2019-01-11T00:14:11.723Z,983.52
2019-01-11T00:16:15.883Z,983.50
2019-01-11T00:17:16.116Z,983.49
2019-01-11T00:19:20.264Z,983.46
2019-01-11T00:20:20.493Z,983.40
2019-01-11T00:22:24.660Z,983.39
2019-01-11T00:23:24.893Z,983.40
2019-01-11T00:25:17.986Z,983.37
2019-01-11T00:26:18.217Z,983.33
2019-01-11T00:28:22.359Z,983.27
2019-01-11T00:29:22.591Z,983.26
2019-01-11T00:31:26.755Z,983.22
2019-01-11T00:32:26.993Z,983.22
2019-01-11T00:34:31.147Z,983.23
2019-01-11T00:35:31.377Z,983.23
2019-01-11T00:37:35.545Z,983.17
2019-01-11T00:38:35.770Z,983.20
2019-01-11T00:40:39.938Z,983.18
2019-01-11T00:41:40.167Z,983.18
2019-01-11T00:43:45.324Z,983.18
2019-01-11T00:44:45.556Z,983.19
2019-01-11T00:46:50.213Z,983.19
2019-01-11T00:47:50.445Z,983.17
2019-01-11T00:49:54.589Z,983.10
2019-01-11T00:50:54.842Z,983.10
2019-01-11T00:52:58.988Z,983.06
2019-01-11T00:53:59.224Z,983.05
2019-01-11T00:55:52.320Z,983.01
2019-01-11T00:56:52.551Z,983.02
2019-01-11T00:58:57.726Z,983.06
2019-01-11T00:59:57.960Z,983.03
2019-01-11T01:02:02.128Z,983.07
2019-01-11T01:03:02.365Z,983.06
2019-01-11T01:05:06.515Z,983.06
2019-01-11T01:06:06.750Z,983.01
2019-01-11T01:08:10.928Z,982.96
2019-01-11T01:09:11.160Z,982.96
2019-01-11T01:11:15.328Z,982.95
2019-01-11T01:12:15.562Z,982.94
2019-01-11T01:14:19.711Z,982.93
2019-01-11T01:15:19.947Z,983.00
2019-01-11T01:17:24.114Z,982.99
2019-01-11T01:18:24.352Z,983.01
2019-01-11T01:20:28.499Z,983.03
2019-01-11T01:21:28.734Z,982.99
2019-01-11T01:23:33.390Z,983.04
2019-01-11T01:24:33.620Z,982.98
2019-01-11T01:26:38.286Z,983.00
2019-01-11T01:27:38.516Z,983.02
2019-01-11T01:29:43.165Z,983.00
2019-01-11T01:30:43.397Z,983.01
2019-01-11T01:32:48.585Z,983.00
2019-01-11T01:33:48.817Z,982.97
2019-01-11T01:35:42.382Z,982.99
2019-01-11T01:36:42.612Z,982.99
2019-01-11T01:38:46.776Z,982.97
2019-01-11T01:39:47.009Z,982.96
2019-01-11T01:41:51.199Z,982.93
2019-01-11T01:42:51.418Z,982.96
2019-01-11T01:44:55.565Z,982.98
2019-01-11T01:45:55.795Z,982.99
2019-01-11T01:47:59.969Z,982.97
2019-01-11T01:49:00.201Z,982.89
2019-01-11T01:51:04.834Z,982.87
2019-01-11T01:52:05.071Z,982.94
2019-01-11T01:54:09.729Z,982.87
2019-01-11T01:55:09.962Z,982.93
2019-01-11T01:57:14.126Z,982.94
2019-01-11T01:58:14.349Z,982.96
2019-01-11T02:00:18.981Z,982.89
2019-01-11T02:01:19.215Z,982.91
2019-01-11T02:03:23.879Z,982.88
2019-01-11T02:04:24.108Z,982.93
2019-01-11T02:06:28.267Z,982.90
2019-01-11T02:07:28.491Z,982.91
2019-01-11T02:09:33.155Z,982.85
2019-01-11T02:10:33.384Z,982.85
2019-01-11T02:12:38.041Z,982.84
2019-01-11T02:13:38.271Z,982.81
2019-01-11T02:15:31.839Z,982.83
2019-01-11T02:16:32.064Z,982.75
2019-01-11T02:18:36.225Z,982.81
2019-01-11T02:19:36.460Z,982.78
2019-01-11T02:21:40.605Z,982.70
2019-01-11T02:22:40.839Z,982.76
2019-01-11T02:24:45.499Z,982.81
2019-01-11T02:25:46.300Z,982.81
2019-01-11T02:27:49.894Z,982.75
2019-01-11T02:28:50.133Z,982.80
2019-01-11T02:30:55.788Z,982.82
2019-01-11T02:31:56.015Z,982.82
2019-01-11T02:34:00.172Z,982.75
2019-01-11T02:35:00.406Z,982.76
2019-01-11T02:37:05.046Z,982.77
2019-01-11T02:38:05.276Z,982.81
2019-01-11T02:40:09.442Z,982.75
2019-01-11T02:41:09.670Z,982.74
2019-01-11T02:43:13.845Z,982.74
2019-01-11T02:44:14.068Z,982.72
2019-01-11T02:46:18.713Z,982.72
2019-01-11T02:47:18.952Z,982.72
2019-01-11T02:49:24.134Z,982.69
2019-01-11T02:50:24.373Z,982.68
2019-01-11T02:52:30.013Z,982.67
2019-01-11T02:53:30.245Z,982.68
2019-01-11T02:55:23.832Z,982.69
2019-01-11T02:56:24.076Z,982.68
2019-01-11T02:58:28.719Z,982.66
2019-01-11T02:59:28.948Z,982.66
2019-01-11T03:01:34.100Z,982.67
2019-01-11T03:02:34.334Z,982.67
2019-01-11T03:04:39.997Z,982.63
2019-01-11T03:05:40.233Z,982.67
2019-01-11T03:07:44.870Z,982.62
2019-01-11T03:08:45.107Z,982.56
2019-01-11T03:10:49.281Z,982.61
2019-01-11T03:11:49.517Z,982.61
2019-01-11T03:13:54.698Z,982.59
2019-01-11T03:14:54.932Z,982.57
2019-01-11T03:16:59.075Z,982.50
2019-01-11T03:17:59.318Z,982.53
2019-01-11T03:20:03.491Z,982.51
2019-01-11T03:21:03.719Z,982.46
2019-01-11T03:23:07.873Z,982.49
2019-01-11T03:24:08.094Z,982.49
2019-01-11T03:26:01.206Z,982.46
2019-01-11T03:27:01.412Z,982.50
2019-01-11T03:29:05.573Z,982.42
2019-01-11T03:30:05.808Z,982.44
2019-01-11T03:32:10.458Z,982.43
2019-01-11T03:33:10.683Z,982.42
2019-01-11T03:35:15.338Z,982.43
2019-01-11T03:36:15.567Z,982.40
2019-01-11T03:38:20.206Z,982.39
2019-01-11T03:39:20.428Z,982.38
2019-01-11T03:41:25.105Z,982.38
2019-01-11T03:42:25.318Z,982.35
2019-01-11T03:44:29.487Z,982.33
2019-01-11T03:45:30.143Z,982.39
2019-01-11T03:47:34.364Z,982.34
2019-01-11T03:48:34.587Z,982.33
2019-01-11T03:50:38.752Z,982.28
2019-01-11T03:51:38.991Z,982.28
2019-01-11T03:53:43.624Z,982.29
2019-01-11T03:54:43.854Z,982.23
2019-01-11T03:56:48.508Z,982.31
2019-01-11T03:57:48.741Z,982.29
2019-01-11T03:59:52.916Z,982.28
2019-01-11T04:00:53.144Z,982.27
2019-01-11T04:02:57.303Z,982.25
2019-01-11T04:03:57.533Z,982.26
2019-01-11T04:05:50.644Z,982.23
2019-01-11T04:06:50.867Z,982.23
2019-01-11T04:08:55.006Z,982.22
2019-01-11T04:09:55.236Z,982.23
2019-01-11T04:11:59.401Z,982.18
2019-01-11T04:12:59.625Z,982.15
2019-01-11T04:15:03.798Z,982.13
2019-01-11T04:16:04.028Z,982.12
2019-01-11T04:18:08.168Z,982.11
2019-01-11T04:19:08.399Z,982.10
2019-01-11T04:21:13.060Z,982.09
2019-01-11T04:22:13.286Z,982.07
2019-01-11T04:24:17.431Z,982.10
2019-01-11T04:25:17.666Z,982.12
2019-01-11T04:27:21.838Z,982.10
2019-01-11T04:28:22.074Z,982.10
2019-01-11T04:30:26.239Z,982.09
2019-01-11T04:31:26.464Z,982.09
2019-01-11T04:33:30.606Z,982.10
2019-01-11T04:34:30.839Z,982.13
2019-01-11T04:36:35.494Z,982.19
2019-01-11T04:37:35.722Z,982.16
2019-01-11T04:39:39.861Z,982.13
2019-01-11T04:40:40.109Z,982.13
2019-01-11T04:42:44.260Z,982.12
2019-01-11T04:43:44.492Z,982.06
2019-01-11T04:45:37.572Z,982.06
2019-01-11T04:46:37.796Z,982.06
2019-01-11T04:48:42.469Z,982.04
2019-01-11T04:49:42.687Z,982.04
2019-01-11T04:51:47.349Z,981.99
2019-01-11T04:52:47.594Z,981.99
2019-01-11T04:54:52.218Z,981.98
2019-01-11T04:55:52.451Z,981.97
2019-01-11T04:57:57.103Z,981.94
2019-01-11T04:58:57.337Z,981.91
2019-01-11T05:01:01.991Z,981.85
2019-01-11T05:02:02.217Z,981.94
2019-01-11T05:04:06.854Z,981.89
2019-01-11T05:05:07.084Z,981.86
2019-01-11T05:07:11.248Z,981.81
2019-01-11T05:08:11.478Z,981.85
2019-01-11T05:10:16.635Z,981.84
2019-01-11T05:11:16.868Z,981.86
2019-01-11T05:13:22.528Z,981.87
2019-01-11T05:14:22.758Z,981.85
2019-01-11T05:16:27.424Z,981.83
2019-01-11T05:17:27.654Z,981.85
2019-01-11T05:19:32.293Z,981.82
2019-01-11T05:20:32.522Z,981.82
2019-01-11T05:22:37.184Z,981.76
2019-01-11T05:23:37.413Z,981.78
2019-01-11T05:25:31.019Z,981.78
2019-01-11T05:26:31.216Z,981.76
2019-01-11T05:28:36.399Z,981.74
2019-01-11T05:29:36.648Z,981.70
2019-01-11T05:31:41.298Z,981.71
2019-01-11T05:32:41.534Z,981.74
2019-01-11T05:34:45.681Z,981.68
2019-01-11T05:35:45.923Z,981.66
2019-01-11T05:37:50.573Z,981.68
2019-01-11T05:38:50.807Z,981.67
2019-01-11T05:40:54.970Z,981.59
2019-01-11T05:41:55.207Z,981.57
2019-01-11T05:43:59.370Z,981.59
2019-01-11T05:44:59.606Z,981.58
2019-01-11T05:47:04.267Z,981.53
2019-01-11T05:48:04.490Z,981.55
2019-01-11T05:50:08.634Z,981.54
2019-01-11T05:51:08.862Z,981.55
2019-01-11T05:53:13.520Z,981.47
2019-01-11T05:54:13.750Z,981.48
2019-01-11T05:56:17.894Z,981.51
2019-01-11T05:57:18.122Z,981.50
2019-01-11T05:59:23.300Z,981.45
2019-01-11T06:00:23.533Z,981.41
2019-01-11T06:02:27.695Z,981.40
2019-01-11T06:03:27.926Z,981.42
2019-01-11T06:05:20.995Z,981.34
2019-01-11T06:06:21.230Z,981.36
2019-01-11T06:08:25.419Z,981.32
2019-01-11T06:09:25.634Z,981.34
2019-01-11T06:11:30.272Z,981.33
2019-01-11T06:12:30.501Z,981.36
2019-01-11T06:14:35.157Z,981.34
2019-01-11T06:15:35.388Z,981.32
2019-01-11T06:17:39.551Z,981.33
2019-01-11T06:18:39.783Z,981.35
2019-01-11T06:20:43.920Z,981.30
2019-01-11T06:21:44.152Z,981.31
2019-01-11T06:23:48.312Z,981.28
2019-01-11T06:24:48.542Z,981.28
2019-01-11T06:26:52.682Z,981.20
2019-01-11T06:27:52.911Z,981.17
2019-01-11T06:29:57.105Z,981.12
2019-01-11T06:30:57.315Z,981.19
2019-01-11T06:33:01.471Z,981.15
2019-01-11T06:34:01.705Z,981.13
2019-01-11T06:35:54.774Z,981.12
2019-01-11T06:36:55.005Z,981.13
2019-01-11T06:38:59.159Z,981.11
2019-01-11T06:39:59.389Z,981.16
2019-01-11T06:42:03.530Z,981.10
2019-01-11T06:43:03.856Z,981.10
2019-01-11T06:45:07.919Z,981.15
2019-01-11T06:46:08.150Z,981.13
2019-01-11T06:48:12.309Z,981.12
2019-01-11T06:49:12.540Z,981.16
2019-01-11T06:51:16.682Z,981.13
2019-01-11T06:52:16.915Z,981.17
2019-01-11T06:54:21.072Z,981.13
2019-01-11T06:55:21.301Z,981.13
2019-01-11T06:57:25.444Z,981.20
2019-01-11T06:58:25.687Z,981.17
2019-01-11T07:00:29.838Z,981.13
2019-01-11T07:01:30.075Z,981.20
2019-01-11T07:03:34.228Z,981.14
2019-01-11T07:04:34.459Z,981.14
2019-01-11T07:06:38.601Z,981.09
2019-01-11T07:07:38.830Z,981.15
2019-01-11T07:09:42.990Z,981.12
2019-01-11T07:10:43.222Z,981.04
2019-01-11T07:12:47.359Z,981.03
2019-01-11T07:13:47.598Z,981.08
2019-01-11T07:15:40.687Z,981.08
2019-01-11T07:16:40.919Z,981.07
2019-01-11T07:18:46.104Z,981.04
2019-01-11T07:19:46.332Z,981.06
2019-01-11T07:21:50.478Z,981.04
2019-01-11T07:22:50.709Z,981.03
2019-01-11T07:24:54.872Z,981.05
2019-01-11T07:25:55.103Z,981.07
2019-01-11T07:27:59.247Z,981.05
2019-01-11T07:28:59.478Z,981.08
2019-01-11T07:31:03.640Z,981.04
2019-01-11T07:32:03.871Z,981.08
2019-01-11T07:34:08.038Z,981.08
2019-01-11T07:35:08.268Z,981.06
2019-01-11T07:37:12.408Z,981.07
2019-01-11T07:38:12.640Z,981.07
2019-01-11T07:40:16.808Z,981.09
2019-01-11T07:41:17.039Z,981.07
2019-01-11T07:43:21.186Z,981.11
2019-01-11T07:44:21.456Z,981.07
2019-01-11T07:46:25.587Z,981.15
2019-01-11T07:47:25.816Z,981.07
2019-01-11T07:49:29.994Z,981.11
2019-01-11T07:50:30.236Z,981.09
2019-01-11T07:52:34.372Z,981.11
2019-01-11T07:53:34.603Z,981.08
2019-01-11T07:55:27.701Z,981.07
2019-01-11T07:56:27.928Z,981.12
2019-01-11T07:58:32.061Z,981.11
2019-01-11T07:59:32.297Z,981.11
2019-01-11T08:01:37.470Z,981.12
2019-01-11T08:02:37.701Z,981.07
2019-01-11T08:04:41.840Z,981.06
2019-01-11T08:05:42.069Z,981.03
2019-01-11T08:07:46.233Z,981.03
2019-01-11T08:08:46.464Z,981.06
2019-01-11T08:10:50.628Z,981.05
2019-01-11T08:11:50.869Z,981.07
2019-01-11T08:13:55.005Z,981.02
2019-01-11T08:14:55.237Z,981.02
2019-01-11T08:16:59.403Z,981.04
2019-01-11T08:17:59.632Z,981.07
2019-01-11T08:20:03.771Z,981.06
2019-01-11T08:21:04.002Z,981.06
2019-01-11T08:23:08.165Z,981.07
2019-01-11T08:24:08.396Z,981.06
2019-01-11T08:26:01.488Z,981.10
2019-01-11T08:27:01.719Z,980.99
2019-01-11T08:29:06.872Z,980.99
2019-01-11T08:30:07.103Z,981.00
2019-01-11T08:32:11.268Z,981.01
2019-01-11T08:33:11.500Z,981.05
2019-01-11T08:35:15.644Z,980.99
2019-01-11T08:36:15.879Z,980.96
2019-01-11T08:38:20.037Z,980.93
2019-01-11T08:39:20.269Z,980.91
2019-01-11T08:41:24.428Z,980.87
2019-01-11T08:42:24.665Z,980.90
2019-01-11T08:44:28.801Z,980.97
2019-01-11T08:45:29.031Z,980.95
2019-01-11T08:47:33.195Z,980.99
2019-01-11T08:48:33.431Z,980.98
2019-01-11T08:50:37.568Z,980.97
2019-01-11T08:51:37.791Z,980.94
2019-01-11T08:53:41.956Z,980.97
2019-01-11T08:54:42.186Z,980.94
2019-01-11T08:56:46.345Z,980.91
2019-01-11T08:57:46.577Z,980.87
2019-01-11T08:59:50.725Z,980.80
2019-01-11T09:00:50.953Z,980.77
2019-01-11T09:02:55.115Z,980.76
2019-01-11T09:03:55.349Z,980.78
2019-01-11T09:05:48.422Z,980.88
2019-01-11T09:06:48.646Z,980.86
2019-01-11T09:08:52.810Z,980.82
2019-01-11T09:09:53.041Z,980.82
2019-01-11T09:11:57.202Z,980.96
2019-01-11T09:12:57.432Z,980.91
2019-01-11T09:15:02.589Z,980.95
2019-01-11T09:16:02.832Z,980.97
2019-01-11T09:18:06.983Z,980.92
2019-01-11T09:19:07.211Z,980.88
2019-01-11T09:21:11.486Z,980.96
2019-01-11T09:22:11.587Z,980.95
2019-01-11T09:24:15.747Z,980.95
2019-01-11T09:25:15.978Z,980.99
2019-01-11T09:27:20.144Z,980.95
2019-01-11T09:28:20.376Z,980.96
2019-01-11T09:30:24.516Z,980.95
2019-01-11T09:31:24.745Z,980.93
2019-01-11T09:33:28.915Z,981.02
2019-01-11T09:34:29.197Z,980.99
2019-01-11T09:36:33.342Z,980.94
2019-01-11T09:37:33.611Z,980.96
2019-01-11T09:39:37.779Z,980.93
2019-01-11T09:40:38.074Z,981.01
2019-01-11T09:42:42.325Z,980.96
2019-01-11T09:43:42.599Z,980.95
2019-01-11T09:45:35.739Z,980.91
2019-01-11T09:46:35.990Z,980.96
2019-01-11T09:48:40.295Z,980.97
2019-01-11T09:49:40.574Z,980.97
2019-01-11T09:51:44.788Z,980.95
2019-01-11T09:52:44.982Z,980.97
2019-01-11T09:54:50.213Z,980.90
2019-01-11T09:55:50.493Z,980.86
2019-01-11T09:57:54.683Z,980.89
2019-01-11T09:58:54.943Z,980.92
2019-01-11T10:00:59.363Z,980.95
2019-01-11T10:01:59.326Z,980.94
2019-01-11T10:04:04.045Z,980.98
2019-01-11T10:05:04.310Z,980.94
2019-01-11T10:07:08.454Z,980.83
2019-01-11T10:08:08.699Z,980.91
2019-01-11T10:10:12.871Z,980.96
2019-01-11T10:11:13.636Z,980.91
2019-01-11T10:13:17.265Z,980.91
2019-01-11T10:14:17.519Z,980.91
2019-01-11T10:16:21.680Z,980.89
2019-01-11T10:17:21.941Z,980.89
2019-01-11T10:19:26.166Z,980.84
2019-01-11T10:20:26.449Z,980.95
2019-01-11T10:22:41.863Z,980.97
2019-01-11T10:23:42.158Z,980.96
2019-01-11T10:25:35.302Z,981.00
2019-01-11T10:26:35.531Z,980.95
2019-01-11T10:28:39.696Z,980.98
2019-01-11T10:29:39.928Z,981.00
2019-01-11T10:31:44.077Z,980.95
2019-01-11T10:32:44.306Z,980.92
2019-01-11T10:34:48.475Z,980.89
2019-01-11T10:35:48.729Z,980.91
2019-01-11T10:37:52.899Z,980.88
2019-01-11T10:38:53.179Z,980.84
2019-01-11T10:40:57.349Z,980.82
2019-01-11T10:41:57.578Z,980.83
2019-01-11T10:44:01.843Z,980.86
2019-01-11T10:45:02.070Z,980.88
2019-01-11T10:47:07.261Z,980.80
2019-01-11T10:48:07.490Z,980.81
2019-01-11T10:50:12.626Z,980.84
2019-01-11T10:51:11.947Z,980.71
2019-01-11T10:53:16.113Z,980.75
2019-01-11T10:54:16.361Z,980.76
2019-01-11T10:56:20.557Z,980.71
2019-01-11T10:57:20.784Z,980.70
2019-01-11T10:59:24.956Z,980.65
2019-01-11T11:00:25.185Z,980.64
2019-01-11T11:02:29.337Z,980.62
2019-01-11T11:03:29.642Z,980.57
2019-01-11T11:05:22.746Z,980.53
2019-01-11T11:06:22.978Z,980.60
2019-01-11T11:08:27.131Z,980.54
2019-01-11T11:09:27.361Z,980.57
2019-01-11T11:11:31.586Z,980.52
2019-01-11T11:12:31.811Z,980.53
2019-01-11T11:14:36.076Z,980.47
2019-01-11T11:15:36.303Z,980.50
2019-01-11T11:17:40.466Z,980.46
2019-01-11T11:18:40.694Z,980.43
2019-01-11T11:20:44.926Z,980.46
2019-01-11T11:21:45.202Z,980.42
2019-01-11T11:23:49.437Z,980.41
2019-01-11T11:24:49.666Z,980.45
2019-01-11T11:26:53.816Z,980.42
2019-01-11T11:27:54.047Z,980.42
2019-01-11T11:29:58.212Z,980.44
2019-01-11T11:30:58.508Z,980.42
2019-01-11T11:33:02.649Z,980.46
2019-01-11T11:34:02.943Z,980.48
2019-01-11T11:35:56.093Z,980.48
2019-01-11T11:36:56.390Z,980.49
2019-01-11T11:39:00.620Z,980.47
2019-01-11T11:40:00.915Z,980.50
2019-01-11T11:42:05.059Z,980.36
2019-01-11T11:43:05.373Z,980.36
2019-01-11T11:45:09.547Z,980.29
2019-01-11T11:46:09.824Z,980.27
2019-01-11T11:48:13.996Z,980.26
2019-01-11T11:49:14.254Z,980.26
2019-01-11T11:51:18.493Z,980.26
2019-01-11T11:52:18.727Z,980.25
2019-01-11T11:54:22.958Z,980.22
2019-01-11T11:55:23.187Z,980.22
2019-01-11T11:57:27.332Z,980.13
2019-01-11T11:58:27.563Z,980.12
2019-01-11T12:00:31.728Z,980.14
2019-01-11T12:01:31.957Z,980.12
2019-01-11T12:03:36.097Z,980.08
2019-01-11T12:04:36.327Z,980.07
2019-01-11T12:06:40.490Z,980.03
2019-01-11T12:07:40.720Z,979.98
2019-01-11T12:09:44.890Z,980.06
2019-01-11T12:10:45.119Z,980.10
2019-01-11T12:12:49.275Z,980.04
2019-01-11T12:13:49.487Z,980.07
2019-01-11T12:15:42.584Z,980.07
2019-01-11T12:16:42.806Z,980.02
2019-01-11T12:18:46.961Z,980.06
2019-01-11T12:19:47.191Z,980.04
2019-01-11T12:21:51.347Z,980.02
2019-01-11T12:22:51.579Z,979.96
2019-01-11T12:24:55.734Z,979.92
2019-01-11T12:25:55.972Z,979.90
2019-01-11T12:28:00.113Z,979.85
2019-01-11T12:29:00.341Z,979.81
2019-01-11T12:31:04.538Z,979.76
2019-01-11T12:32:04.743Z,979.72
2019-01-11T12:34:08.877Z,979.69
2019-01-11T12:35:09.106Z,979.68
2019-01-11T12:37:13.269Z,979.69
2019-01-11T12:38:13.887Z,979.68
2019-01-11T12:40:17.657Z,979.69
2019-01-11T12:41:17.890Z,979.69
2019-01-11T12:43:22.029Z,979.58
2019-01-11T12:44:22.264Z,979.58
2019-01-11T12:46:26.422Z,979.49
2019-01-11T12:47:26.655Z,979.50
2019-01-11T12:49:30.796Z,979.46
2019-01-11T12:50:31.027Z,979.43
2019-01-11T12:52:35.192Z,979.56
2019-01-11T12:53:35.424Z,979.48
2019-01-11T12:55:28.516Z,979.51
2019-01-11T12:56:28.747Z,979.51
2019-01-11T12:58:32.886Z,979.50
2019-01-11T12:59:33.122Z,979.48
2019-01-11T13:01:37.298Z,979.47
2019-01-11T13:02:37.530Z,979.44
2019-01-11T13:04:41.672Z,979.45
2019-01-11T13:05:41.898Z,979.44
2019-01-11T13:07:46.076Z,979.44
2019-01-11T13:08:46.308Z,979.40
2019-01-11T13:10:50.468Z,979.41
2019-01-11T13:11:50.698Z,979.36
2019-01-11T13:13:54.844Z,979.36
2019-01-11T13:14:55.073Z,979.34
2019-01-11T13:16:59.238Z,979.32
2019-01-11T13:17:59.470Z,979.34
2019-01-11T13:20:03.608Z,979.39
2019-01-11T13:21:03.841Z,979.34
2019-01-11T13:23:07.998Z,979.35
2019-01-11T13:24:08.230Z,979.33
2019-01-11T13:26:01.314Z,979.35
2019-01-11T13:27:01.546Z,979.33
2019-01-11T13:29:05.683Z,979.31
2019-01-11T13:30:05.927Z,979.30
2019-01-11T13:32:10.265Z,979.29
2019-01-11T13:33:10.498Z,979.26
2019-01-11T13:35:14.663Z,979.16
2019-01-11T13:36:14.889Z,979.26
2019-01-11T13:38:19.254Z,979.19
2019-01-11T13:39:19.504Z,979.15
2019-01-11T13:41:23.803Z,979.19
2019-01-11T13:42:24.027Z,979.24
2019-01-11T13:44:28.341Z,979.22
2019-01-11T13:45:28.573Z,979.17
2019-01-11T13:47:33.339Z,979.22
2019-01-11T13:48:32.942Z,979.16
2019-01-11T13:50:37.105Z,979.15
2019-01-11T13:51:37.339Z,979.14
2019-01-11T13:53:41.500Z,979.12
2019-01-11T13:54:41.746Z,979.18
2019-01-11T13:56:45.962Z,979.15
2019-01-11T13:57:46.341Z,979.12
2019-01-11T13:59:50.691Z,979.10
2019-01-11T14:00:50.787Z,979.12
2019-01-11T14:02:55.020Z,979.10
2019-01-11T14:03:55.363Z,979.14
2019-01-11T14:05:48.657Z,979.02
2019-01-11T14:06:48.785Z,979.05
2019-01-11T14:08:53.045Z,979.00
2019-01-11T14:09:53.279Z,979.07
2019-01-11T14:11:57.451Z,979.07
2019-01-11T14:12:57.679Z,979.08
2019-01-11T14:15:01.841Z,979.00
2019-01-11T14:16:02.073Z,979.00
2019-01-11T14:18:06.756Z,979.01
2019-01-11T14:19:06.446Z,978.98
2019-01-11T14:21:10.609Z,978.94
2019-01-11T14:22:13.765Z,978.89
2019-01-11T14:24:15.007Z,978.91
2019-01-11T14:25:15.239Z,978.92
2019-01-11T14:27:19.369Z,978.93
2019-01-11T14:28:19.610Z,978.92
2019-01-11T14:30:23.787Z,978.89
2019-01-11T14:31:24.018Z,978.93
2019-01-11T14:33:28.189Z,978.93
2019-01-11T14:34:28.423Z,978.90
2019-01-11T14:36:32.575Z,978.90
2019-01-11T14:37:32.807Z,978.91
2019-01-11T14:39:36.950Z,978.89
2019-01-11T14:40:37.200Z,978.90
2019-01-11T14:42:41.343Z,978.91
2019-01-11T14:43:41.571Z,978.95
2019-01-11T14:45:34.667Z,978.85
2019-01-11T14:46:34.934Z,978.91
2019-01-11T14:48:39.054Z,978.86
2019-01-11T14:49:39.277Z,978.93
2019-01-11T14:51:43.462Z,978.85
2019-01-11T14:52:43.698Z,978.86
2019-01-11T14:54:48.873Z,978.85
2019-01-11T14:55:49.104Z,978.83
2019-01-11T14:57:53.244Z,978.79
2019-01-11T14:58:53.478Z,978.73
2019-01-11T15:00:57.642Z,978.81
2019-01-11T15:01:57.875Z,978.77
2019-01-11T15:04:02.023Z,978.91
2019-01-11T15:05:02.254Z,978.89
2019-01-11T15:07:06.421Z,978.83
2019-01-11T15:08:06.651Z,978.82
2019-01-11T15:10:10.819Z,978.90
2019-01-11T15:11:11.053Z,978.84
2019-01-11T15:13:15.194Z,978.88
2019-01-11T15:14:15.450Z,978.86
2019-01-11T15:16:19.583Z,978.83
2019-01-11T15:17:19.814Z,978.82
2019-01-11T15:19:23.990Z,978.84
2019-01-11T15:20:24.222Z,978.81
2019-01-11T15:22:28.387Z,978.83
2019-01-11T15:23:28.616Z,978.83
2019-01-11T15:25:21.718Z,978.78
2019-01-11T15:26:21.948Z,978.85
2019-01-11T15:28:26.092Z,978.83
2019-01-11T15:29:26.323Z,978.79
2019-01-11T15:31:30.493Z,978.75
2019-01-11T15:32:30.729Z,978.75
2019-01-11T15:34:34.871Z,978.65
2019-01-11T15:35:35.103Z,978.69
2019-01-11T15:37:39.271Z,978.71
2019-01-11T15:38:39.502Z,978.69
2019-01-11T15:40:43.666Z,978.71
2019-01-11T15:41:43.900Z,978.69
2019-01-11T15:43:48.049Z,978.69
2019-01-11T15:44:48.278Z,978.75
2019-01-11T15:46:52.442Z,978.67
2019-01-11T15:47:52.673Z,978.64
2019-01-11T15:49:56.818Z,978.68
2019-01-11T15:50:57.047Z,978.70
2019-01-11T15:53:01.204Z,978.68
2019-01-11T15:54:01.435Z,978.74
2019-01-11T15:55:54.525Z,978.72
2019-01-11T15:56:54.761Z,978.52
2019-01-11T15:58:58.902Z,978.57
2019-01-11T15:59:59.134Z,978.53
2019-01-11T16:02:03.296Z,978.52
2019-01-11T16:03:03.531Z,978.52
2019-01-11T16:05:07.667Z,978.51
2019-01-11T16:06:07.899Z,978.49
2019-01-11T16:08:12.063Z,978.46
2019-01-11T16:09:12.300Z,978.44
2019-01-11T16:11:16.468Z,978.37
2019-01-11T16:12:16.697Z,978.43
2019-01-11T16:14:20.838Z,978.40
2019-01-11T16:15:21.072Z,978.39
2019-01-11T16:17:25.236Z,978.35
2019-01-11T16:18:25.467Z,978.32
2019-01-11T16:20:29.611Z,978.28
2019-01-11T16:21:29.845Z,978.23
2019-01-11T16:23:34.015Z,978.25
2019-01-11T16:24:34.246Z,978.24
2019-01-11T16:26:38.478Z,978.26
2019-01-11T16:27:38.647Z,978.20
2019-01-11T16:29:42.786Z,978.26
2019-01-11T16:30:43.177Z,978.21
2019-01-11T16:32:47.254Z,978.10
2019-01-11T16:33:47.486Z,978.20
2019-01-11T16:35:40.556Z,978.28
2019-01-11T16:36:40.804Z,978.34
2019-01-11T16:38:44.961Z,978.21
2019-01-11T16:39:45.208Z,978.38
2019-01-11T16:41:49.354Z,978.33
2019-01-11T16:42:49.586Z,978.30
2019-01-11T16:44:53.773Z,978.21
2019-01-11T16:45:53.951Z,978.24
2019-01-11T16:47:58.618Z,978.16
2019-01-11T16:48:58.850Z,978.19
2019-01-11T16:51:03.001Z,978.34
2019-01-11T16:52:03.235Z,978.33
2019-01-11T16:54:07.400Z,978.34
2019-01-11T16:55:07.634Z,978.32
2019-01-11T16:57:11.937Z,978.37
2019-01-11T16:58:12.192Z,978.41
2019-01-11T17:00:16.342Z,978.23
2019-01-11T17:01:16.704Z,978.22
2019-01-11T17:03:21.029Z,978.27
2019-01-11T17:04:21.387Z,978.21
2019-01-11T17:06:26.450Z,978.21
2019-01-11T17:07:26.342Z,978.22
2019-01-11T17:09:31.175Z,978.34
2019-01-11T17:10:31.313Z,978.22
2019-01-11T17:12:41.575Z,978.29
2019-01-11T17:13:40.573Z,978.42
2019-01-11T17:15:29.924Z,978.43
2019-01-11T17:16:30.151Z,978.38
2019-01-11T17:18:34.311Z,978.46
2019-01-11T17:19:34.770Z,978.52
2019-01-11T17:21:38.723Z,978.45
2019-01-11T17:22:39.035Z,978.47
2019-01-11T17:24:44.157Z,978.34
2019-01-11T17:25:44.388Z,978.42
2019-01-11T17:27:48.553Z,978.39
2019-01-11T17:28:48.782Z,978.36
2019-01-11T17:30:52.992Z,978.33
2019-01-11T17:31:53.174Z,978.32
2019-01-11T17:33:57.482Z,978.37
2019-01-11T17:34:57.567Z,978.36
2019-01-11T17:37:01.739Z,978.36
2019-01-11T17:38:02.044Z,978.39
2019-01-11T17:40:06.212Z,978.63
2019-01-11T17:41:06.442Z,978.45
2019-01-11T17:43:10.637Z,978.51
2019-01-11T17:44:10.867Z,978.58
2019-01-11T17:46:03.940Z,978.61
2019-01-11T17:47:04.182Z,978.59
2019-01-11T17:49:08.333Z,978.60
2019-01-11T17:50:08.567Z,978.55
2019-01-11T17:52:12.709Z,978.52
2019-01-11T17:53:12.990Z,978.51
2019-01-11T17:55:17.105Z,978.55
2019-01-11T17:56:17.335Z,978.53
2019-01-11T17:58:21.482Z,978.62
2019-01-11T17:59:21.713Z,978.55
2019-01-11T18:01:25.882Z,978.60
2019-01-11T18:02:26.118Z,978.60
2019-01-11T18:04:30.275Z,978.58
2019-01-11T18:05:30.512Z,978.59
2019-01-11T18:07:34.651Z,978.63
2019-01-11T18:08:34.884Z,978.64
2019-01-11T18:10:39.046Z,978.57
2019-01-11T18:11:39.276Z,978.56
2019-01-11T18:13:43.416Z,978.54
2019-01-11T18:14:43.647Z,978.50
2019-01-11T18:16:47.818Z,978.52
2019-01-11T18:17:48.048Z,978.50
2019-01-11T18:19:52.217Z,978.45
2019-01-11T18:20:52.448Z,978.51
2019-01-11T18:22:56.751Z,978.43
2019-01-11T18:23:56.908Z,978.42
2019-01-11T18:25:50.078Z,978.42
2019-01-11T18:26:50.473Z,978.44
2019-01-11T18:28:54.739Z,978.45
2019-01-11T18:29:54.978Z,978.45
2019-01-11T18:31:59.161Z,978.51
2019-01-11T18:32:59.434Z,978.53
2019-01-11T18:35:03.689Z,978.43
2019-01-11T18:36:03.970Z,978.48
2019-01-11T18:38:08.405Z,978.38
2019-01-11T18:39:08.809Z,978.45
2019-01-11T18:41:13.026Z,978.39
2019-01-11T18:42:13.255Z,978.40
2019-01-11T18:44:17.426Z,978.47
2019-01-11T18:45:17.657Z,978.29
2019-01-11T18:47:21.818Z,978.31
2019-01-11T18:48:22.050Z,978.40
2019-01-11T18:50:26.213Z,978.42
2019-01-11T18:51:26.446Z,978.47
2019-01-11T18:53:30.590Z,978.44
2019-01-11T18:54:30.836Z,978.39
2019-01-11T18:56:35.000Z,978.42
2019-01-11T18:57:35.238Z,978.46
2019-01-11T18:59:39.415Z,978.43
2019-01-11T19:00:39.830Z,978.45
2019-01-11T19:02:43.795Z,978.43
2019-01-11T19:03:44.005Z,978.38
2019-01-11T19:05:37.097Z,978.43